Mugan — 9HA2962 — position and weather

sailwx.info

Track history (hours):
 
Tides and Currents Weather Stations Pressure Air Temp Water Temp Dewpoint Dewpoint Depression Visibility Wind Speed Wind Dir Waves Ship Positions

Mugan

Last reported at 2016-Aug-31 07:33 UTC. Time now 2016-Sep-01 03:39 UTC.
Position N 36°17' E 015°42'.

; draft 3.8 m.

Type: Tanker. MMSI: 256914000.

Date/timePositionNaut miles runAvg speedWind from/ knotsBaromVisibWave heightAir tempDewpointWater temp
2016-Aug-31 07:33N 36°17' E 015°42'4110.0
2016-Aug-31 03:27N 36°18' E 014°51'910.0
2016-Aug-31 02:33N 36°18' E 014°40'10 9.9
2016-Aug-31 01:33N 36°19' E 014°27'10 9.9
2016-Aug-31 00:33N 36°22' E 014°16'1110.0
2016-Aug-30 23:28N 36°26' E 014°03'910.3
2016-Aug-30 22:33N 36°29' E 013°52'1110.4
2016-Aug-30 21:33N 36°32' E 013°40'1110.5
2016-Aug-30 20:33N 36°37' E 013°28'1110.6
2016-Aug-30 19:33N 36°41' E 013°16'1010.4
2016-Aug-30 18:33N 36°45' E 013°04'1010.3
2016-Aug-30 17:33N 36°49' E 012°52'10 9.9
2016-Aug-30 16:33N 36°53' E 012°40'1010.1
2016-Aug-30 15:33N 36°56' E 012°29'1010.2
2016-Aug-30 14:33N 36°60' E 012°17'1110.8
2016-Aug-30 13:33N 37°04' E 012°04'1211.0
2016-Aug-30 12:29N 37°09' E 011°51'29110.0
2016-Aug-29 07:33N 37°22' E 005°46'11 9.8
2016-Aug-29 06:27N 37°21' E 005°33'41 9.3
2016-Aug-29 02:05N 37°17' E 004°42'510.1
2016-Aug-29 01:32N 37°16' E 004°35'2010.2
2016-Aug-28 23:33N 37°13' E 004°10'1210.1
2016-Aug-28 22:24N 37°11' E 003°55'1910.2
2016-Aug-28 20:33N 37°08' E 003°32'2010.1
2016-Aug-28 18:33N 37°05' E 003°07'1110.9
2016-Aug-28 17:33N 37°03' E 002°54'1110.7
2016-Aug-28 16:33N 37°01' E 002°40'3410.1
2016-Aug-28 13:14N 36°56' E 001°59'910.2
2016-Aug-28 12:22N 36°54' E 001°48'12 9.9
2016-Aug-28 11:12N 36°52' E 001°34'6 8.5
2016-Aug-28 10:33N 36°50' E 001°28'1110.4
2016-Aug-28 09:32N 36°48' E 001°15'3310.1
2016-Aug-28 06:19N 36°43' E 000°34'810.3
2016-Aug-28 05:33N 36°42' E 000°25'1010.1
2016-Aug-28 04:33N 36°40' E 000°12'1210.1
2016-Aug-28 03:23N 36°39' W 000°02'1310.0
2016-Aug-28 02:04N 36°37' W 000°19'510.2
2016-Aug-28 01:33N 36°36' W 000°25'1510.4
2016-Aug-28 00:08N 36°34' W 000°43'610.6
2016-Aug-27 23:32N 36°33' W 000°51'4310.0
2016-Aug-27 19:15N 36°26' W 001°43'26 9.6
2016-Aug-27 16:33N 36°22' W 002°15'13710.2
2016-Aug-27 03:08N 36°01' W 005°03'710.4
2016-Aug-27 02:30N 35°60' W 005°11'9 9.3
2016-Aug-27 01:33N 35°54' W 005°19'0 0.4
2016-Aug-27 00:27N 35°54' W 005°19'0 0.0
2016-Aug-26 23:33N 35°54' W 005°19'0 0.2
2016-Aug-26 22:33N 35°54' W 005°19'7 7.1
2016-Aug-26 21:33N 35°57' W 005°27'12 9.1
2016-Aug-26 20:15N 35°54' W 005°41'7 8.0
2016-Aug-26 19:25N 35°54' W 005°49'  
2016-Aug-22 22:32N 35°59' W 005°32'8 7.8
2016-Aug-22 21:33N 36°00' W 005°22'9 9.1
2016-Aug-22 20:33N 36°02' W 005°11'  
Track history (hours):
 
Tides and Currents Weather Stations Pressure Air Temp Water Temp Dewpoint Dewpoint Depression Visibility Wind Speed Wind Dir Waves Ship Positions

Mugan

Last reported at 2016-Aug-31 07:33 UTC. Time now 2016-Sep-01 03:39 UTC.
Position N 36°17' E 015°42'.

; draft 3.8 m.

Type: Tanker. MMSI: 256914000.

Date/timePositionNaut miles runAvg speedWind from/ knotsBaromVisibWave heightAir tempDewpointWater temp
2016-Aug-31 07:33N 36°17' E 015°42'4110.0
2016-Aug-31 03:27N 36°18' E 014°51'910.0
2016-Aug-31 02:33N 36°18' E 014°40'10 9.9
2016-Aug-31 01:33N 36°19' E 014°27'10 9.9
2016-Aug-31 00:33N 36°22' E 014°16'1110.0
2016-Aug-30 23:28N 36°26' E 014°03'910.3
2016-Aug-30 22:33N 36°29' E 013°52'1110.4
2016-Aug-30 21:33N 36°32' E 013°40'1110.5
2016-Aug-30 20:33N 36°37' E 013°28'1110.6
2016-Aug-30 19:33N 36°41' E 013°16'1010.4
2016-Aug-30 18:33N 36°45' E 013°04'1010.3
2016-Aug-30 17:33N 36°49' E 012°52'10 9.9
2016-Aug-30 16:33N 36°53' E 012°40'1010.1
2016-Aug-30 15:33N 36°56' E 012°29'1010.2
2016-Aug-30 14:33N 36°60' E 012°17'1110.8
2016-Aug-30 13:33N 37°04' E 012°04'1211.0
2016-Aug-30 12:29N 37°09' E 011°51'29110.0
2016-Aug-29 07:33N 37°22' E 005°46'11 9.8
2016-Aug-29 06:27N 37°21' E 005°33'41 9.3
2016-Aug-29 02:05N 37°17' E 004°42'510.1
2016-Aug-29 01:32N 37°16' E 004°35'2010.2
2016-Aug-28 23:33N 37°13' E 004°10'1210.1
2016-Aug-28 22:24N 37°11' E 003°55'1910.2
2016-Aug-28 20:33N 37°08' E 003°32'2010.1
2016-Aug-28 18:33N 37°05' E 003°07'1110.9
2016-Aug-28 17:33N 37°03' E 002°54'1110.7
2016-Aug-28 16:33N 37°01' E 002°40'3410.1
2016-Aug-28 13:14N 36°56' E 001°59'910.2
2016-Aug-28 12:22N 36°54' E 001°48'12 9.9
2016-Aug-28 11:12N 36°52' E 001°34'6 8.5
2016-Aug-28 10:33N 36°50' E 001°28'1110.4
2016-Aug-28 09:32N 36°48' E 001°15'3310.1
2016-Aug-28 06:19N 36°43' E 000°34'810.3
2016-Aug-28 05:33N 36°42' E 000°25'1010.1
2016-Aug-28 04:33N 36°40' E 000°12'1210.1
2016-Aug-28 03:23N 36°39' W 000°02'1310.0
2016-Aug-28 02:04N 36°37' W 000°19'510.2
2016-Aug-28 01:33N 36°36' W 000°25'1510.4
2016-Aug-28 00:08N 36°34' W 000°43'610.6
2016-Aug-27 23:32N 36°33' W 000°51'4310.0
2016-Aug-27 19:15N 36°26' W 001°43'26 9.6
2016-Aug-27 16:33N 36°22' W 002°15'13710.2
2016-Aug-27 03:08N 36°01' W 005°03'710.4
2016-Aug-27 02:30N 35°60' W 005°11'9 9.3
2016-Aug-27 01:33N 35°54' W 005°19'0 0.4
2016-Aug-27 00:27N 35°54' W 005°19'0 0.0
2016-Aug-26 23:33N 35°54' W 005°19'0 0.2
2016-Aug-26 22:33N 35°54' W 005°19'7 7.1
2016-Aug-26 21:33N 35°57' W 005°27'12 9.1
2016-Aug-26 20:15N 35°54' W 005°41'7 8.0
2016-Aug-26 19:25N 35°54' W 005°49'  
2016-Aug-22 22:32N 35°59' W 005°32'8 7.8
2016-Aug-22 21:33N 36°00' W 005°22'9 9.1
2016-Aug-22 20:33N 36°02' W 005°11'  

Dump ship's entire track history